createdAt,value
2022-12-23T00:01:23.000Z,23.70
2022-12-23T00:11:23.000Z,18.20
2022-12-23T00:21:23.000Z,13.80
2022-12-23T00:31:23.000Z,16.50
2022-12-23T00:41:23.000Z,12.60
2022-12-23T00:51:23.000Z,11.20
2022-12-23T01:01:23.000Z,9.80
2022-12-23T01:11:23.000Z,17.40
2022-12-23T01:31:23.000Z,12.50
2022-12-23T01:41:23.000Z,21.60
2022-12-23T01:51:23.000Z,6.30
2022-12-23T02:01:23.000Z,16.60
2022-12-23T02:11:23.000Z,6.10
2022-12-23T02:21:23.000Z,5.80
2022-12-23T02:31:23.000Z,9.00
2022-12-23T02:41:23.000Z,5.40
2022-12-23T03:01:22.000Z,5.40
2022-12-23T03:11:22.000Z,4.70
2022-12-23T03:21:22.000Z,10.80
2022-12-23T03:31:22.000Z,5.20
2022-12-23T03:41:22.000Z,4.90
2022-12-23T03:51:22.000Z,5.00
2022-12-23T04:01:22.000Z,13.20
2022-12-23T04:11:22.000Z,4.80
2022-12-23T04:31:22.000Z,10.40
2022-12-23T04:41:22.000Z,4.80
2022-12-23T04:51:22.000Z,4.60
2022-12-23T05:01:22.000Z,4.50
2022-12-23T05:11:21.000Z,4.30
2022-12-23T05:21:21.000Z,5.20
2022-12-23T05:31:21.000Z,4.20
2022-12-23T05:41:21.000Z,4.60
2022-12-23T06:01:21.000Z,5.50
2022-12-23T06:11:21.000Z,4.40
2022-12-23T06:21:21.000Z,4.50
2022-12-23T06:31:21.000Z,5.10
2022-12-23T06:41:21.000Z,7.60
2022-12-23T06:51:21.000Z,5.40
2022-12-23T07:01:21.000Z,4.30
2022-12-23T07:11:20.000Z,5.00
2022-12-23T07:31:20.000Z,5.50
2022-12-23T07:41:20.000Z,5.20
2022-12-23T07:51:20.000Z,5.70
2022-12-23T08:01:20.000Z,5.50
2022-12-23T08:11:20.000Z,5.90
2022-12-23T08:21:20.000Z,6.50
2022-12-23T08:31:20.000Z,6.30
2022-12-23T08:41:20.000Z,6.10
2022-12-23T09:01:19.000Z,7.40
2022-12-23T09:11:19.000Z,6.90
2022-12-23T09:21:19.000Z,8.20
2022-12-23T09:21:19.000Z,8.20
2022-12-23T10:49:31.000Z,8.90
2022-12-23T10:49:31.000Z,5.90
2022-12-23T10:59:31.000Z,5.60
2022-12-23T11:09:31.000Z,7.30
2022-12-23T11:19:31.000Z,6.90
2022-12-23T11:29:31.000Z,13.40
2022-12-23T11:39:31.000Z,6.00
2022-12-23T11:49:31.000Z,5.40
2022-12-23T11:59:31.000Z,6.60
2022-12-23T12:19:31.000Z,5.90
2022-12-23T12:29:31.000Z,6.00
2022-12-23T12:39:31.000Z,9.70
2022-12-23T12:49:31.000Z,8.90
2022-12-23T12:59:31.000Z,7.30
2022-12-23T13:09:30.000Z,8.00
2022-12-23T13:19:30.000Z,7.50
2022-12-23T13:29:30.000Z,8.20
2022-12-23T13:49:30.000Z,10.20
2022-12-23T13:59:30.000Z,9.20
2022-12-23T14:09:30.000Z,36.30
2022-12-23T14:19:30.000Z,22.00
2022-12-23T14:29:30.000Z,16.30
2022-12-23T14:39:30.000Z,50.30
2022-12-23T14:49:30.000Z,18.40
2022-12-23T14:59:30.000Z,21.70
2022-12-23T15:19:30.000Z,26.90
2022-12-23T15:29:30.000Z,32.30
2022-12-23T15:39:30.000Z,36.00
2022-12-23T15:49:30.000Z,37.40
2022-12-23T15:59:30.000Z,60.70
2022-12-23T16:09:30.000Z,52.50
2022-12-23T16:19:30.000Z,43.90
2022-12-23T16:29:30.000Z,38.10
2022-12-23T16:49:31.000Z,26.30
2022-12-23T16:59:31.000Z,35.60
2022-12-23T17:29:49.000Z,48.50
2022-12-23T17:29:49.000Z,63.30
2022-12-23T17:39:49.000Z,60.40
2022-12-23T17:49:49.000Z,33.60
2022-12-23T17:59:49.000Z,30.20
2022-12-23T18:09:49.000Z,32.80
2022-12-23T18:19:49.000Z,24.00
2022-12-23T18:29:50.000Z,24.10
2022-12-23T18:39:50.000Z,38.00
2022-12-23T18:59:50.000Z,31.90
2022-12-23T19:09:50.000Z,29.80
2022-12-23T19:19:50.000Z,25.50
2022-12-23T19:29:51.000Z,43.20
2022-12-23T19:39:51.000Z,45.50
2022-12-23T19:49:51.000Z,28.90
2022-12-23T19:59:51.000Z,29.30
2022-12-23T20:09:51.000Z,31.70
2022-12-23T20:29:52.000Z,48.40
2022-12-23T20:39:52.000Z,56.80
2022-12-23T20:49:52.000Z,31.60
2022-12-23T20:59:52.000Z,47.60
2022-12-23T21:09:52.000Z,65.50
2022-12-23T21:09:52.000Z,65.50
2022-12-23T21:19:52.000Z,49.30
2022-12-23T21:29:52.000Z,59.20
2022-12-23T21:39:53.000Z,54.60
2022-12-23T21:59:53.000Z,27.30
2022-12-23T22:09:53.000Z,20.40
2022-12-23T22:19:53.000Z,13.40
2022-12-23T22:29:53.000Z,12.20
2022-12-23T22:39:53.000Z,15.00
2022-12-23T22:49:54.000Z,17.90
2022-12-23T22:49:54.000Z,17.90
2022-12-23T22:49:54.000Z,17.90
2022-12-23T22:59:54.000Z,13.50
2022-12-23T23:09:54.000Z,8.60
2022-12-23T23:29:54.000Z,17.90
2022-12-23T23:39:54.000Z,5.30
2022-12-23T23:49:54.000Z,5.00
2022-12-23T23:59:54.000Z,10.20
